sensor_id;sensor_type;location;lat;lon;timestamp;pressure;altitude;pressure_sealevel;temperature;humidity
36234;BME280;43467;50.890;5.982;2023-12-14T00:00:23;99286.19;;;10.72;83.69
36234;BME280;43467;50.890;5.982;2023-12-14T00:02:48;99285.63;;;10.67;83.99
36234;BME280;43467;50.890;5.982;2023-12-14T00:05:14;99291.78;;;10.67;84.07
36234;BME280;43467;50.890;5.982;2023-12-14T00:07:39;99298.00;;;10.66;84.14
36234;BME280;43467;50.890;5.982;2023-12-14T00:10:05;99305.28;;;10.63;84.25
36234;BME280;43467;50.890;5.982;2023-12-14T00:12:31;99301.28;;;10.56;84.29
36234;BME280;43467;50.890;5.982;2023-12-14T00:14:56;99315.50;;;10.55;84.81
36234;BME280;43467;50.890;5.982;2023-12-14T00:17:22;99317.28;;;10.54;84.66
36234;BME280;43467;50.890;5.982;2023-12-14T00:19:47;99315.03;;;10.62;84.68
36234;BME280;43467;50.890;5.982;2023-12-14T00:22:12;99315.88;;;10.63;84.54
36234;BME280;43467;50.890;5.982;2023-12-14T00:24:38;99327.59;;;10.59;84.38
36234;BME280;43467;50.890;5.982;2023-12-14T00:27:04;99319.63;;;10.45;85.30
36234;BME280;43467;50.890;5.982;2023-12-14T00:29:29;99326.16;;;10.53;85.40
36234;BME280;43467;50.890;5.982;2023-12-14T00:31:55;99330.13;;;10.46;85.33
36234;BME280;43467;50.890;5.982;2023-12-14T00:34:20;99339.78;;;10.47;85.23
36234;BME280;43467;50.890;5.982;2023-12-14T00:36:46;99343.09;;;10.51;85.62
36234;BME280;43467;50.890;5.982;2023-12-14T00:39:11;99353.69;;;10.51;85.54
36234;BME280;43467;50.890;5.982;2023-12-14T00:41:37;99356.41;;;10.49;85.67
36234;BME280;43467;50.890;5.982;2023-12-14T00:44:02;99354.78;;;10.47;85.57
36234;BME280;43467;50.890;5.982;2023-12-14T00:46:27;99365.66;;;10.42;85.72
36234;BME280;43467;50.890;5.982;2023-12-14T00:48:54;99367.91;;;10.48;85.89
36234;BME280;43467;50.890;5.982;2023-12-14T00:51:19;99363.84;;;10.43;86.08
36234;BME280;43467;50.890;5.982;2023-12-14T00:53:45;99371.13;;;10.39;86.52
36234;BME280;43467;50.890;5.982;2023-12-14T00:56:10;99393.91;;;10.42;86.43
36234;BME280;43467;50.890;5.982;2023-12-14T00:58:35;99391.94;;;10.45;86.69
36234;BME280;43467;50.890;5.982;2023-12-14T01:01:01;99395.91;;;10.52;86.30
36234;BME280;43467;50.890;5.982;2023-12-14T01:03:26;99399.81;;;10.61;85.95
36234;BME280;43467;50.890;5.982;2023-12-14T01:05:51;99404.25;;;10.60;85.78
36234;BME280;43467;50.890;5.982;2023-12-14T01:08:17;99413.69;;;10.50;86.00
36234;BME280;43467;50.890;5.982;2023-12-14T01:10:42;99421.44;;;10.53;85.99
36234;BME280;43467;50.890;5.982;2023-12-14T01:13:08;99414.88;;;10.45;86.39
36234;BME280;43467;50.890;5.982;2023-12-14T01:15:33;99429.31;;;10.55;86.25
36234;BME280;43467;50.890;5.982;2023-12-14T01:17:59;99435.53;;;10.54;86.69
36234;BME280;43467;50.890;5.982;2023-12-14T01:20:24;99445.75;;;10.60;86.04
36234;BME280;43467;50.890;5.982;2023-12-14T01:22:50;99433.75;;;10.54;86.19
36234;BME280;43467;50.890;5.982;2023-12-14T01:25:15;99443.91;;;10.46;86.16
36234;BME280;43467;50.890;5.982;2023-12-14T01:27:41;99441.94;;;10.50;86.94
36234;BME280;43467;50.890;5.982;2023-12-14T01:30:06;99447.50;;;10.45;86.81
36234;BME280;43467;50.890;5.982;2023-12-14T01:32:32;99455.88;;;10.38;86.91
36234;BME280;43467;50.890;5.982;2023-12-14T01:34:58;99459.97;;;10.43;87.03
36234;BME280;43467;50.890;5.982;2023-12-14T01:37:23;99467.22;;;10.40;86.69
36234;BME280;43467;50.890;5.982;2023-12-14T01:39:49;99462.44;;;10.46;86.79
36234;BME280;43467;50.890;5.982;2023-12-14T01:42:14;99471.50;;;10.42;86.49
36234;BME280;43467;50.890;5.982;2023-12-14T01:44:39;99461.41;;;10.49;86.91
36234;BME280;43467;50.890;5.982;2023-12-14T01:47:05;99481.50;;;10.37;86.98
36234;BME280;43467;50.890;5.982;2023-12-14T01:49:30;99473.22;;;10.43;86.74
36234;BME280;43467;50.890;5.982;2023-12-14T01:51:55;99479.66;;;10.53;87.00
36234;BME280;43467;50.890;5.982;2023-12-14T01:54:21;99488.50;;;10.38;87.29
36234;BME280;43467;50.890;5.982;2023-12-14T01:56:46;99487.41;;;10.27;87.67
36234;BME280;43467;50.890;5.982;2023-12-14T01:59:12;99495.72;;;10.19;87.68
36234;BME280;43467;50.890;5.982;2023-12-14T02:04:08;99507.56;;;10.12;88.16
36234;BME280;43467;50.890;5.982;2023-12-14T02:06:33;99513.53;;;10.00;89.51
36234;BME280;43467;50.890;5.982;2023-12-14T02:08:59;99509.53;;;9.93;89.20
36234;BME280;43467;50.890;5.982;2023-12-14T02:11:25;99505.66;;;9.82;89.95
36234;BME280;43467;50.890;5.982;2023-12-14T02:13:50;99513.19;;;9.90;89.31
36234;BME280;43467;50.890;5.982;2023-12-14T02:16:16;99520.84;;;9.95;89.69
36234;BME280;43467;50.890;5.982;2023-12-14T02:18:41;99535.53;;;10.00;89.31
36234;BME280;43467;50.890;5.982;2023-12-14T02:21:07;99537.25;;;9.86;88.99
36234;BME280;43467;50.890;5.982;2023-12-14T02:23:32;99549.50;;;9.87;89.20
36234;BME280;43467;50.890;5.982;2023-12-14T02:25:58;99552.00;;;9.90;88.70
36234;BME280;43467;50.890;5.982;2023-12-14T02:28:24;99560.66;;;9.76;88.61
36234;BME280;43467;50.890;5.982;2023-12-14T02:30:49;99563.63;;;9.70;89.55
36234;BME280;43467;50.890;5.982;2023-12-14T02:33:14;99570.22;;;9.78;88.96
36234;BME280;43467;50.890;5.982;2023-12-14T02:35:40;99576.53;;;9.76;88.85
36234;BME280;43467;50.890;5.982;2023-12-14T02:38:05;99579.81;;;9.64;89.21
36234;BME280;43467;50.890;5.982;2023-12-14T02:40:31;99578.44;;;9.57;89.80
36234;BME280;43467;50.890;5.982;2023-12-14T02:42:56;99592.72;;;9.53;90.28
36234;BME280;43467;50.890;5.982;2023-12-14T02:45:21;99588.44;;;9.50;89.96
36234;BME280;43467;50.890;5.982;2023-12-14T02:47:47;99596.31;;;9.52;89.71
36234;BME280;43467;50.890;5.982;2023-12-14T02:50:13;99607.03;;;9.49;89.58
36234;BME280;43467;50.890;5.982;2023-12-14T02:52:39;99610.31;;;9.37;89.76
36234;BME280;43467;50.890;5.982;2023-12-14T02:55:05;99606.97;;;9.33;89.09
36234;BME280;43467;50.890;5.982;2023-12-14T02:57:32;99629.94;;;9.31;88.76
36234;BME280;43467;50.890;5.982;2023-12-14T02:59:58;99628.31;;;9.28;88.68
36234;BME280;43467;50.890;5.982;2023-12-14T03:02:23;99635.41;;;9.28;88.76
36234;BME280;43467;50.890;5.982;2023-12-14T03:04:48;99635.69;;;9.22;88.74
36234;BME280;43467;50.890;5.982;2023-12-14T03:07:14;99643.16;;;9.31;88.16
36234;BME280;43467;50.890;5.982;2023-12-14T03:09:40;99647.53;;;9.32;88.02
36234;BME280;43467;50.890;5.982;2023-12-14T03:12:10;99652.81;;;9.32;87.35
36234;BME280;43467;50.890;5.982;2023-12-14T03:14:35;99660.94;;;9.27;87.00
36234;BME280;43467;50.890;5.982;2023-12-14T03:17:01;99657.28;;;9.13;87.67
36234;BME280;43467;50.890;5.982;2023-12-14T03:19:27;99657.28;;;9.13;87.98
36234;BME280;43467;50.890;5.982;2023-12-14T03:21:53;99666.28;;;9.26;87.78
36234;BME280;43467;50.890;5.982;2023-12-14T03:24:18;99668.00;;;9.27;87.67
36234;BME280;43467;50.890;5.982;2023-12-14T03:26:44;99663.81;;;9.23;87.72
36234;BME280;43467;50.890;5.982;2023-12-14T03:29:09;99674.91;;;9.29;87.35
36234;BME280;43467;50.890;5.982;2023-12-14T03:31:35;99681.53;;;9.21;87.44
36234;BME280;43467;50.890;5.982;2023-12-14T03:34:01;99680.97;;;9.14;87.75
36234;BME280;43467;50.890;5.982;2023-12-14T03:36:26;99686.47;;;9.10;87.72
36234;BME280;43467;50.890;5.982;2023-12-14T03:38:53;99685.06;;;9.03;87.19
36234;BME280;43467;50.890;5.982;2023-12-14T03:41:18;99682.47;;;9.01;87.16
36234;BME280;43467;50.890;5.982;2023-12-14T03:43:43;99686.91;;;9.01;86.92
36234;BME280;43467;50.890;5.982;2023-12-14T03:46:09;99692.81;;;9.06;86.99
36234;BME280;43467;50.890;5.982;2023-12-14T03:48:35;99704.81;;;8.94;86.59
36234;BME280;43467;50.890;5.982;2023-12-14T03:51:04;99707.25;;;8.99;86.63
36234;BME280;43467;50.890;5.982;2023-12-14T03:53:30;99709.97;;;8.97;86.43
36234;BME280;43467;50.890;5.982;2023-12-14T03:55:57;99709.69;;;8.84;87.35
36234;BME280;43467;50.890;5.982;2023-12-14T03:58:24;99712.19;;;8.88;87.39
36234;BME280;43467;50.890;5.982;2023-12-14T04:00:49;99712.69;;;8.77;87.74
36234;BME280;43467;50.890;5.982;2023-12-14T04:03:15;99714.91;;;8.86;87.89
36234;BME280;43467;50.890;5.982;2023-12-14T04:05:40;99707.97;;;8.65;88.25
36234;BME280;43467;50.890;5.982;2023-12-14T04:08:06;99706.53;;;8.76;88.13
36234;BME280;43467;50.890;5.982;2023-12-14T04:10:31;99715.41;;;8.75;88.01
36234;BME280;43467;50.890;5.982;2023-12-14T04:12:57;99728.59;;;8.94;87.78
36234;BME280;43467;50.890;5.982;2023-12-14T04:15:22;99736.84;;;9.05;87.18
36234;BME280;43467;50.890;5.982;2023-12-14T04:17:48;99733.66;;;8.99;86.83
36234;BME280;43467;50.890;5.982;2023-12-14T04:20:14;99740.63;;;8.81;87.93
36234;BME280;43467;50.890;5.982;2023-12-14T04:22:41;99749.78;;;8.74;88.19
36234;BME280;43467;50.890;5.982;2023-12-14T04:25:07;99750.78;;;8.71;88.66
36234;BME280;43467;50.890;5.982;2023-12-14T04:27:32;99748.06;;;8.73;88.17
36234;BME280;43467;50.890;5.982;2023-12-14T04:29:58;99756.84;;;8.73;88.01
36234;BME280;43467;50.890;5.982;2023-12-14T04:32:24;99771.50;;;8.60;88.18
36234;BME280;43467;50.890;5.982;2023-12-14T04:34:49;99760.53;;;8.51;88.87
36234;BME280;43467;50.890;5.982;2023-12-14T04:37:14;99762.16;;;8.53;88.71
36234;BME280;43467;50.890;5.982;2023-12-14T04:39:40;99763.22;;;8.49;88.41
36234;BME280;43467;50.890;5.982;2023-12-14T04:42:05;99767.28;;;8.56;87.73
36234;BME280;43467;50.890;5.982;2023-12-14T04:44:31;99764.03;;;8.51;87.02
36234;BME280;43467;50.890;5.982;2023-12-14T04:46:56;99765.91;;;8.68;86.66
36234;BME280;43467;50.890;5.982;2023-12-14T04:49:22;99775.06;;;8.79;85.89
36234;BME280;43467;50.890;5.982;2023-12-14T04:51:47;99781.59;;;8.90;85.36
36234;BME280;43467;50.890;5.982;2023-12-14T04:54:12;99777.47;;;9.03;84.55
36234;BME280;43467;50.890;5.982;2023-12-14T04:56:38;99787.88;;;9.06;83.94
36234;BME280;43467;50.890;5.982;2023-12-14T04:59:03;99792.75;;;9.15;83.89
36234;BME280;43467;50.890;5.982;2023-12-14T05:01:28;99793.38;;;9.01;84.56
36234;BME280;43467;50.890;5.982;2023-12-14T05:03:54;99798.44;;;9.06;84.63
36234;BME280;43467;50.890;5.982;2023-12-14T05:06:20;99805.31;;;8.91;85.49
36234;BME280;43467;50.890;5.982;2023-12-14T05:08:46;99802.56;;;8.93;85.73
36234;BME280;43467;50.890;5.982;2023-12-14T05:11:14;99814.66;;;8.98;85.57
36234;BME280;43467;50.890;5.982;2023-12-14T05:13:40;99814.44;;;8.84;85.37
36234;BME280;43467;50.890;5.982;2023-12-14T05:16:06;99816.88;;;8.68;85.81
36234;BME280;43467;50.890;5.982;2023-12-14T05:18:32;99827.13;;;8.76;85.95
36234;BME280;43467;50.890;5.982;2023-12-14T05:20:57;99829.28;;;8.86;85.63
36234;BME280;43467;50.890;5.982;2023-12-14T05:23:23;99840.63;;;8.68;85.67
36234;BME280;43467;50.890;5.982;2023-12-14T05:25:49;99850.66;;;8.60;85.13
36234;BME280;43467;50.890;5.982;2023-12-14T05:28:15;99869.28;;;8.37;86.15
36234;BME280;43467;50.890;5.982;2023-12-14T05:30:40;99872.09;;;8.32;86.48
36234;BME280;43467;50.890;5.982;2023-12-14T05:33:06;99873.88;;;8.32;86.72
36234;BME280;43467;50.890;5.982;2023-12-14T05:35:34;99873.25;;;8.47;86.52
36234;BME280;43467;50.890;5.982;2023-12-14T05:38:00;99881.28;;;8.64;85.80
36234;BME280;43467;50.890;5.982;2023-12-14T05:40:26;99886.69;;;8.61;84.78
36234;BME280;43467;50.890;5.982;2023-12-14T05:42:51;99886.78;;;8.60;84.99
36234;BME280;43467;50.890;5.982;2023-12-14T05:45:17;99896.19;;;8.45;85.20
36234;BME280;43467;50.890;5.982;2023-12-14T05:47:44;99889.19;;;8.44;84.82
36234;BME280;43467;50.890;5.982;2023-12-14T05:50:09;99898.91;;;8.44;85.05
36234;BME280;43467;50.890;5.982;2023-12-14T05:52:35;99899.47;;;8.30;85.75
36234;BME280;43467;50.890;5.982;2023-12-14T05:55:01;99901.59;;;8.20;86.57
36234;BME280;43467;50.890;5.982;2023-12-14T05:57:26;99908.84;;;8.37;86.24
36234;BME280;43467;50.890;5.982;2023-12-14T05:59:52;99919.88;;;8.47;86.04
36234;BME280;43467;50.890;5.982;2023-12-14T06:02:17;99934.91;;;8.45;85.73
36234;BME280;43467;50.890;5.982;2023-12-14T06:04:42;99939.44;;;8.41;85.94
36234;BME280;43467;50.890;5.982;2023-12-14T06:07:08;99948.28;;;8.40;85.61
36234;BME280;43467;50.890;5.982;2023-12-14T06:09:34;99954.16;;;8.25;86.12
36234;BME280;43467;50.890;5.982;2023-12-14T06:12:03;99966.34;;;8.27;86.07
36234;BME280;43467;50.890;5.982;2023-12-14T06:14:30;99969.06;;;8.26;86.69
36234;BME280;43467;50.890;5.982;2023-12-14T06:16:55;99979.66;;;8.24;87.57
36234;BME280;43467;50.890;5.982;2023-12-14T06:19:21;99975.06;;;8.31;87.01
36234;BME280;43467;50.890;5.982;2023-12-14T06:21:47;99979.47;;;8.30;86.90
36234;BME280;43467;50.890;5.982;2023-12-14T06:24:13;99977.25;;;8.42;86.70
36234;BME280;43467;50.890;5.982;2023-12-14T06:26:43;99982.22;;;8.49;86.60
36234;BME280;43467;50.890;5.982;2023-12-14T06:29:11;99984.31;;;8.41;86.65
36234;BME280;43467;50.890;5.982;2023-12-14T06:31:38;99985.53;;;8.32;86.59
36234;BME280;43467;50.890;5.982;2023-12-14T06:34:03;99985.53;;;8.32;87.16
36234;BME280;43467;50.890;5.982;2023-12-14T06:36:31;99990.75;;;8.34;87.04
36234;BME280;43467;50.890;5.982;2023-12-14T06:38:58;99996.22;;;8.29;87.11
36234;BME280;43467;50.890;5.982;2023-12-14T06:41:24;99995.31;;;8.30;86.92
36234;BME280;43467;50.890;5.982;2023-12-14T06:43:50;99995.31;;;8.30;87.31
36234;BME280;43467;50.890;5.982;2023-12-14T06:46:16;100010.63;;;8.19;87.49
36234;BME280;43467;50.890;5.982;2023-12-14T06:48:42;100008.72;;;8.01;89.01
36234;BME280;43467;50.890;5.982;2023-12-14T06:51:07;100002.72;;;7.98;89.37
36234;BME280;43467;50.890;5.982;2023-12-14T06:53:34;100014.03;;;7.78;90.19
36234;BME280;43467;50.890;5.982;2023-12-14T06:55:59;100023.34;;;7.63;91.73
36234;BME280;43467;50.890;5.982;2023-12-14T06:58:25;100023.75;;;7.53;92.09
36234;BME280;43467;50.890;5.982;2023-12-14T07:00:50;100022.91;;;7.52;91.91
36234;BME280;43467;50.890;5.982;2023-12-14T07:03:16;100035.16;;;7.53;92.56
36234;BME280;43467;50.890;5.982;2023-12-14T07:05:42;100038.91;;;7.46;93.03
36234;BME280;43467;50.890;5.982;2023-12-14T07:08:07;100046.03;;;7.19;93.98
36234;BME280;43467;50.890;5.982;2023-12-14T07:10:32;100060.00;;;7.21;94.23
36234;BME280;43467;50.890;5.982;2023-12-14T07:12:58;100059.91;;;7.24;94.58
36234;BME280;43467;50.890;5.982;2023-12-14T07:15:24;100069.56;;;7.24;93.75
36234;BME280;43467;50.890;5.982;2023-12-14T07:17:49;100068.00;;;7.18;94.37
36234;BME280;43467;50.890;5.982;2023-12-14T07:20:14;100080.00;;;7.27;94.21
36234;BME280;43467;50.890;5.982;2023-12-14T07:22:40;100085.56;;;7.18;93.46
36234;BME280;43467;50.890;5.982;2023-12-14T07:25:07;100094.28;;;7.20;93.93
36234;BME280;43467;50.890;5.982;2023-12-14T07:27:33;100099.13;;;7.32;93.05
36234;BME280;43467;50.890;5.982;2023-12-14T07:29:58;100099.88;;;7.35;92.13
36234;BME280;43467;50.890;5.982;2023-12-14T07:32:24;100105.25;;;7.32;91.83
36234;BME280;43467;50.890;5.982;2023-12-14T07:34:49;100107.56;;;7.17;91.56
36234;BME280;43467;50.890;5.982;2023-12-14T07:37:16;100102.44;;;7.12;92.29
36234;BME280;43467;50.890;5.982;2023-12-14T07:39:41;100120.06;;;7.10;91.19
36234;BME280;43467;50.890;5.982;2023-12-14T07:42:06;100111.28;;;7.10;91.61
36234;BME280;43467;50.890;5.982;2023-12-14T07:44:32;100125.72;;;7.24;91.26
36234;BME280;43467;50.890;5.982;2023-12-14T07:46:59;100135.38;;;7.25;91.32
36234;BME280;43467;50.890;5.982;2023-12-14T07:49:25;100130.72;;;7.32;90.83
36234;BME280;43467;50.890;5.982;2023-12-14T07:51:51;100135.88;;;7.35;90.98
36234;BME280;43467;50.890;5.982;2023-12-14T07:54:17;100139.13;;;7.43;90.33
36234;BME280;43467;50.890;5.982;2023-12-14T07:56:42;100142.84;;;7.37;89.97
36234;BME280;43467;50.890;5.982;2023-12-14T07:59:08;100147.94;;;7.42;89.69
36234;BME280;43467;50.890;5.982;2023-12-14T08:01:34;100155.78;;;7.43;89.77
36234;BME280;43467;50.890;5.982;2023-12-14T08:03:59;100165.56;;;7.40;89.78
36234;BME280;43467;50.890;5.982;2023-12-14T08:06:25;100169.41;;;7.30;90.72
36234;BME280;43467;50.890;5.982;2023-12-14T08:08:51;100184.41;;;7.28;90.56
36234;BME280;43467;50.890;5.982;2023-12-14T08:11:16;100186.28;;;7.24;91.35
36234;BME280;43467;50.890;5.982;2023-12-14T08:13:42;100194.91;;;7.01;93.21
36234;BME280;43467;50.890;5.982;2023-12-14T08:16:08;100202.56;;;7.09;92.63
36234;BME280;43467;50.890;5.982;2023-12-14T08:18:33;100215.41;;;7.20;91.90
36234;BME280;43467;50.890;5.982;2023-12-14T08:20:59;100225.28;;;7.13;91.01
36234;BME280;43467;50.890;5.982;2023-12-14T08:23:24;100220.03;;;7.13;90.79
36234;BME280;43467;50.890;5.982;2023-12-14T08:25:53;100218.28;;;7.12;90.83
36234;BME280;43467;50.890;5.982;2023-12-14T08:28:25;100226.22;;;7.11;90.39
36234;BME280;43467;50.890;5.982;2023-12-14T08:30:51;100224.47;;;7.11;90.39
36234;BME280;43467;50.890;5.982;2023-12-14T08:33:16;100222.88;;;7.06;90.12
36234;BME280;43467;50.890;5.982;2023-12-14T08:35:42;100238.78;;;7.03;90.78
36234;BME280;43467;50.890;5.982;2023-12-14T08:38:09;100233.41;;;7.06;90.30
36234;BME280;43467;50.890;5.982;2023-12-14T08:40:36;100242.78;;;7.14;90.45
36234;BME280;43467;50.890;5.982;2023-12-14T08:43:01;100243.75;;;7.12;90.53
36234;BME280;43467;50.890;5.982;2023-12-14T08:45:28;100243.00;;;7.08;90.62
36234;BME280;43467;50.890;5.982;2023-12-14T08:47:53;100255.03;;;7.15;88.92
36234;BME280;43467;50.890;5.982;2023-12-14T08:50:19;100256.19;;;7.07;87.49
36234;BME280;43467;50.890;5.982;2023-12-14T08:52:44;100259.34;;;7.18;87.93
36234;BME280;43467;50.890;5.982;2023-12-14T08:55:09;100262.59;;;7.26;87.77
36234;BME280;43467;50.890;5.982;2023-12-14T08:57:35;100259.63;;;7.36;87.10
36234;BME280;43467;50.890;5.982;2023-12-14T09:00:01;100263.75;;;7.45;85.91
36234;BME280;43467;50.890;5.982;2023-12-14T09:02:29;100270.81;;;7.43;84.75
36234;BME280;43467;50.890;5.982;2023-12-14T09:04:54;100276.00;;;7.46;84.89
36234;BME280;43467;50.890;5.982;2023-12-14T09:07:19;100287.09;;;7.56;85.26
36234;BME280;43467;50.890;5.982;2023-12-14T09:09:45;100291.78;;;7.46;84.68
36234;BME280;43467;50.890;5.982;2023-12-14T09:12:10;100284.59;;;7.51;85.44
36234;BME280;43467;50.890;5.982;2023-12-14T09:14:35;100294.22;;;7.54;85.69
36234;BME280;43467;50.890;5.982;2023-12-14T09:17:01;100295.72;;;7.61;85.60
36234;BME280;43467;50.890;5.982;2023-12-14T09:19:29;100303.66;;;7.59;85.40
36234;BME280;43467;50.890;5.982;2023-12-14T09:21:55;100297.47;;;7.62;85.02
36234;BME280;43467;50.890;5.982;2023-12-14T09:24:20;100308.94;;;7.59;85.37
36234;BME280;43467;50.890;5.982;2023-12-14T09:26:45;100316.94;;;7.56;85.40
36234;BME280;43467;50.890;5.982;2023-12-14T09:29:11;100322.97;;;7.60;84.96
36234;BME280;43467;50.890;5.982;2023-12-14T09:31:36;100317.06;;;7.53;84.71
36234;BME280;43467;50.890;5.982;2023-12-14T09:34:01;100322.06;;;7.61;85.07
36234;BME280;43467;50.890;5.982;2023-12-14T09:36:29;100326.66;;;7.54;84.92
36234;BME280;43467;50.890;5.982;2023-12-14T09:38:54;100337.00;;;7.60;85.52
36234;BME280;43467;50.890;5.982;2023-12-14T09:41:20;100334.34;;;7.62;85.17
36234;BME280;43467;50.890;5.982;2023-12-14T09:43:45;100346.34;;;7.70;85.33
36234;BME280;43467;50.890;5.982;2023-12-14T09:46:11;100359.63;;;7.67;84.79
36234;BME280;43467;50.890;5.982;2023-12-14T09:48:38;100367.91;;;7.55;85.37
36234;BME280;43467;50.890;5.982;2023-12-14T09:51:04;100362.84;;;7.49;86.55
36234;BME280;43467;50.890;5.982;2023-12-14T09:53:31;100373.28;;;7.52;86.33
36234;BME280;43467;50.890;5.982;2023-12-14T09:55:56;100374.81;;;7.59;86.70
36234;BME280;43467;50.890;5.982;2023-12-14T09:58:22;100373.16;;;7.57;86.85
36234;BME280;43467;50.890;5.982;2023-12-14T10:00:47;100372.78;;;7.67;86.43
36234;BME280;43467;50.890;5.982;2023-12-14T10:03:21;100366.63;;;7.68;85.86
36234;BME280;43467;50.890;5.982;2023-12-14T10:05:47;100370.13;;;7.69;85.88
36234;BME280;43467;50.890;5.982;2023-12-14T10:08:14;100376.25;;;7.69;85.71
36234;BME280;43467;50.890;5.982;2023-12-14T10:10:41;100371.56;;;7.51;86.39
36234;BME280;43467;50.890;5.982;2023-12-14T10:13:06;100367.97;;;7.54;86.85
36234;BME280;43467;50.890;5.982;2023-12-14T10:15:43;100377.31;;;7.64;86.53
36234;BME280;43467;50.890;5.982;2023-12-14T10:18:09;100374.78;;;7.61;86.46
36234;BME280;43467;50.890;5.982;2023-12-14T10:20:34;100386.41;;;7.54;85.82
36234;BME280;43467;50.890;5.982;2023-12-14T10:23:03;100399.03;;;7.42;86.09
36234;BME280;43467;50.890;5.982;2023-12-14T10:25:29;100398.00;;;7.48;86.21
36234;BME280;43467;50.890;5.982;2023-12-14T10:27:56;100407.81;;;7.43;86.58
36234;BME280;43467;50.890;5.982;2023-12-14T10:30:22;100411.66;;;7.61;86.60
36234;BME280;43467;50.890;5.982;2023-12-14T10:32:48;100422.56;;;7.48;86.46
36234;BME280;43467;50.890;5.982;2023-12-14T10:35:14;100426.88;;;7.51;86.31
36234;BME280;43467;50.890;5.982;2023-12-14T10:37:42;100420.59;;;7.55;86.34
36234;BME280;43467;50.890;5.982;2023-12-14T10:40:09;100422.22;;;7.59;86.78
36234;BME280;43467;50.890;5.982;2023-12-14T10:42:39;100422.06;;;7.65;86.19
36234;BME280;43467;50.890;5.982;2023-12-14T10:45:05;100430.09;;;7.61;86.14
36234;BME280;43467;50.890;5.982;2023-12-14T10:47:31;100440.94;;;7.50;86.26
36234;BME280;43467;50.890;5.982;2023-12-14T10:50:00;100442.03;;;7.43;87.26
36234;BME280;43467;50.890;5.982;2023-12-14T10:52:26;100436.75;;;7.44;87.32
36234;BME280;43467;50.890;5.982;2023-12-14T10:54:56;100449.84;;;7.46;87.91
36234;BME280;43467;50.890;5.982;2023-12-14T10:57:23;100451.72;;;7.42;87.00
36234;BME280;43467;50.890;5.982;2023-12-14T10:59:49;100452.81;;;7.35;87.40
36234;BME280;43467;50.890;5.982;2023-12-14T11:02:15;100450.16;;;7.37;87.27
36234;BME280;43467;50.890;5.982;2023-12-14T11:05:00;100462.97;;;7.49;86.68
36234;BME280;43467;50.890;5.982;2023-12-14T11:10:23;100452.72;;;7.38;87.72
36234;BME280;43467;50.890;5.982;2023-12-14T11:13:11;100472.09;;;7.37;86.78
36234;BME280;43467;50.890;5.982;2023-12-14T11:15:38;100466.94;;;7.33;86.06
36234;BME280;43467;50.890;5.982;2023-12-14T11:25:39;100473.28;;;7.26;86.20
36234;BME280;43467;50.890;5.982;2023-12-14T11:28:06;100463.78;;;7.20;85.90
36234;BME280;43467;50.890;5.982;2023-12-14T11:30:33;100485.44;;;7.30;85.69
36234;BME280;43467;50.890;5.982;2023-12-14T11:33:00;100491.56;;;7.32;86.11
36234;BME280;43467;50.890;5.982;2023-12-14T11:35:25;100490.00;;;7.25;86.26
36234;BME280;43467;50.890;5.982;2023-12-14T11:37:51;100486.38;;;7.29;87.21
36234;BME280;43467;50.890;5.982;2023-12-14T11:40:16;100492.56;;;7.26;86.70
36234;BME280;43467;50.890;5.982;2023-12-14T11:43:00;100487.81;;;7.39;86.84
36234;BME280;43467;50.890;5.982;2023-12-14T11:45:26;100492.28;;;7.37;86.60
36234;BME280;43467;50.890;5.982;2023-12-14T11:47:52;100484.16;;;7.44;86.26
36234;BME280;43467;50.890;5.982;2023-12-14T11:50:18;100479.03;;;7.40;86.71
36234;BME280;43467;50.890;5.982;2023-12-14T11:52:44;100494.97;;;7.34;86.90
36234;BME280;43467;50.890;5.982;2023-12-14T11:55:10;100492.19;;;7.40;87.19
36234;BME280;43467;50.890;5.982;2023-12-14T11:57:36;100495.81;;;7.36;87.01
36234;BME280;43467;50.890;5.982;2023-12-14T12:00:01;100498.97;;;7.48;87.39
36234;BME280;43467;50.890;5.982;2023-12-14T12:02:28;100495.22;;;7.57;86.80
36234;BME280;43467;50.890;5.982;2023-12-14T12:04:53;100501.34;;;7.58;86.11
36234;BME280;43467;50.890;5.982;2023-12-14T12:07:19;100494.22;;;7.61;85.87
36234;BME280;43467;50.890;5.982;2023-12-14T12:09:44;100493.84;;;7.73;85.61
36234;BME280;43467;50.890;5.982;2023-12-14T12:12:11;100497.16;;;7.80;84.25
36234;BME280;43467;50.890;5.982;2023-12-14T12:14:38;100506.94;;;7.76;83.74
36234;BME280;43467;50.890;5.982;2023-12-14T12:17:04;100510.31;;;7.80;82.58
36234;BME280;43467;50.890;5.982;2023-12-14T12:19:39;100511.81;;;7.59;83.16
36234;BME280;43467;50.890;5.982;2023-12-14T12:22:04;100509.53;;;7.47;83.53
36234;BME280;43467;50.890;5.982;2023-12-14T12:24:30;100492.91;;;7.14;84.68
36234;BME280;43467;50.890;5.982;2023-12-14T12:26:56;100509.97;;;7.32;84.15
36234;BME280;43467;50.890;5.982;2023-12-14T12:29:22;100517.66;;;7.09;81.06
36234;BME280;43467;50.890;5.982;2023-12-14T12:31:47;100517.00;;;7.00;81.48
36234;BME280;43467;50.890;5.982;2023-12-14T12:34:13;100524.06;;;6.98;81.61
36234;BME280;43467;50.890;5.982;2023-12-14T12:36:38;100523.28;;;6.95;83.31
36234;BME280;43467;50.890;5.982;2023-12-14T12:39:04;100526.47;;;7.08;83.37
36234;BME280;43467;50.890;5.982;2023-12-14T12:41:32;100534.00;;;7.21;82.87
36234;BME280;43467;50.890;5.982;2023-12-14T12:43:58;100540.16;;;7.20;81.86
36234;BME280;43467;50.890;5.982;2023-12-14T12:46:24;100525.50;;;7.10;82.24
36234;BME280;43467;50.890;5.982;2023-12-14T12:48:49;100540.38;;;7.13;82.40
36234;BME280;43467;50.890;5.982;2023-12-14T12:51:16;100544.09;;;7.04;82.62
36234;BME280;43467;50.890;5.982;2023-12-14T12:53:42;100535.47;;;6.97;83.26
36234;BME280;43467;50.890;5.982;2023-12-14T12:56:07;100542.25;;;7.08;83.11
36234;BME280;43467;50.890;5.982;2023-12-14T12:58:33;100543.66;;;7.21;83.46
36234;BME280;43467;50.890;5.982;2023-12-14T13:00:58;100535.38;;;7.34;82.97
36234;BME280;43467;50.890;5.982;2023-12-14T13:03:23;100538.41;;;7.52;82.18
36234;BME280;43467;50.890;5.982;2023-12-14T13:05:49;100542.66;;;7.56;80.83
36234;BME280;43467;50.890;5.982;2023-12-14T13:08:14;100543.50;;;7.58;82.25
36234;BME280;43467;50.890;5.982;2023-12-14T13:10:40;100540.06;;;7.54;81.77